Terminal Aerodrome Forecast
Issued by NWS

Home | Current Version | Previous Version | Text Only | Print | Product List | Glossary On
Versions: 1 2 3 4 5 6 7 8 9 10 11 12 13 14 15 16 17 18 19 20 21 22
000
FTAK31 PAFA 311740
TAFAOR
TAF
PAOR 311740Z 3118/0118 32005KT 3SM -SN SCT030 OVC040
      TEMPO 3118/3121 2SM -SN BR OVC020
     FM312100 30005KT P6SM SCT025 BKN050
     FM010600 VRB02KT P6SM BKN120
     FM011100 VRB01KT 3SM BR BKN008=

USA.gov is the U.S. government's official web portal to all federal, state and local government web resources and services.